Time;durP1;ratioP1;P1;durP2;ratioP2;P2;SDS_P1;SDS_P2;PMS_P1;PMS_P2;Temp;Humidity;BMP_temperature;BMP_pressure;BME280_temperature;BME280_humidity;BME280_pressure;Samples;Min_cycle;Max_cycle;Signal;HPM_P1;HPM_P2
2021/09/01 00:00:53;;;;;;;4.67;2.00;;;17.10;13.50;;;;;;4998212;28;20204;-50
2021/09/01 00:03:20;;;;;;;6.47;2.27;;;17.10;9.50;;;;;;5010359;28;21885;-50
2021/09/01 00:05:48;;;;;;;6.90;2.50;;;17.20;27.70;;;;;;4998183;28;20203;-51
2021/09/01 00:08:17;;;;;;;7.87;2.40;;;17.20;1.00;;;;;;4994233;28;20334;-51
2021/09/01 00:10:44;;;;;;;6.60;2.87;;;17.20;1.00;;;;;;4996613;28;20203;-50
2021/09/01 00:13:11;;;;;;;8.70;2.50;;;17.20;10.40;;;;;;5001232;28;20235;-50
2021/09/01 00:15:37;;;;;;;5.90;2.13;;;17.20;40.20;;;;;;4992415;28;20300;-51
2021/09/01 00:18:04;;;;;;;9.90;2.60;;;17.30;55.20;;;;;;4993004;28;20292;-50
2021/09/01 00:20:32;;;;;;;6.93;2.40;;;17.40;1.00;;;;;;4996878;28;20241;-50
2021/09/01 00:22:59;;;;;;;7.83;2.33;;;17.50;1.00;;;;;;4997085;28;20331;-51
2021/09/01 00:25:25;;;;;;;8.10;3.17;;;17.60;1.00;;;;;;4996245;28;20311;-50
2021/09/01 00:27:53;;;;;;;4.93;2.20;;;17.40;1.00;;;;;;4995914;28;20289;-51
2021/09/01 00:30:19;;;;;;;5.80;2.20;;;17.40;1.00;;;;;;4996792;28;20682;-50
2021/09/01 00:32:46;;;;;;;9.50;2.30;;;17.40;1.00;;;;;;4993919;28;20236;-51
2021/09/01 00:35:13;;;;;;;8.37;2.30;;;17.50;1.00;;;;;;4995668;28;20215;-50
2021/09/01 00:37:40;;;;;;;6.83;2.77;;;17.50;1.00;;;;;;4996476;28;20236;-51
2021/09/01 00:40:07;;;;;;;9.50;2.70;;;17.40;1.00;;;;;;4996687;28;20301;-50
2021/09/01 00:42:38;;;;;;;7.73;2.77;;;17.30;25.80;;;;;;4997839;28;20229;-50
2021/09/01 00:45:05;;;;;;;7.33;2.40;;;17.30;62.10;;;;;;4996664;28;20313;-51
2021/09/01 00:47:33;;;;;;;6.63;2.37;;;17.20;99.90;;;;;;4995091;28;20237;-51
2021/09/01 00:50:03;;;;;;;11.67;2.90;;;17.20;99.90;;;;;;4993576;28;20863;-51
2021/09/01 00:52:30;;;;;;;7.87;3.20;;;17.40;93.80;;;;;;4995967;28;20812;-51
2021/09/01 00:54:57;;;;;;;11.17;2.80;;;17.30;68.60;;;;;;4996428;28;20635;-51
2021/09/01 00:57:25;;;;;;;5.80;2.40;;;17.20;73.00;;;;;;4994883;28;20209;-51
2021/09/01 00:59:52;;;;;;;7.27;2.70;;;17.10;99.90;;;;;;4997757;28;20222;-50
2021/09/01 01:02:21;;;;;;;8.97;2.90;;;17.20;99.90;;;;;;4992198;28;20396;-51
2021/09/01 01:04:48;;;;;;;7.47;2.50;;;17.40;75.70;;;;;;4994788;28;20212;-50
2021/09/01 01:07:15;;;;;;;8.67;2.57;;;17.40;2.40;;;;;;4991442;28;20330;-51
2021/09/01 01:09:44;;;;;;;5.70;2.47;;;17.40;15.00;;;;;;4995014;28;20291;-51
2021/09/01 01:12:20;;;;;;;10.47;2.50;;;17.50;1.00;;;;;;4996533;28;20209;-50
2021/09/01 01:14:50;;;;;;;5.23;2.80;;;17.40;1.00;;;;;;4996675;28;20302;-50
2021/09/01 01:17:19;;;;;;;7.50;2.60;;;17.30;1.00;;;;;;4998449;28;20714;-50
2021/09/01 01:19:51;;;;;;;11.00;2.53;;;17.30;41.00;;;;;;4994423;28;20199;-50
2021/09/01 01:22:22;;;;;;;6.30;2.40;;;17.30;1.00;;;;;;4995701;28;20200;-51
2021/09/01 01:24:58;;;;;;;9.03;3.07;;;17.20;9.60;;;;;;4994427;28;20209;-51
2021/09/01 01:27:37;;;;;;;5.73;2.27;;;17.40;1.00;;;;;;4994629;28;20204;-51
2021/09/01 01:30:18;;;;;;;8.73;2.73;;;17.40;1.00;;;;;;4994117;28;20259;-50
2021/09/01 01:32:47;;;;;;;4.57;2.87;;;17.30;1.00;;;;;;4994773;28;20379;-50
2021/09/01 01:35:32;;;;;;;6.93;2.53;;;17.20;1.00;;;;;;4996389;28;20732;-50
2021/09/01 01:38:00;;;;;;;6.27;2.50;;;17.30;1.00;;;;;;4994271;28;20288;-51
2021/09/01 01:40:27;;;;;;;6.53;2.70;;;17.50;1.00;;;;;;4996711;28;20580;-50
2021/09/01 01:42:55;;;;;;;11.67;3.00;;;17.50;1.00;;;;;;5000077;28;20575;-50
2021/09/01 01:45:23;;;;;;;7.73;3.30;;;17.40;1.00;;;;;;4999237;28;20759;-51
2021/09/01 01:47:50;;;;;;;9.03;2.80;;;17.30;1.00;;;;;;4996712;28;20331;-50
2021/09/01 01:50:17;;;;;;;5.57;2.53;;;17.10;1.00;;;;;;5000275;28;20687;-50
2021/09/01 01:52:43;;;;;;;7.13;2.63;;;17.20;1.00;;;;;;5001199;28;20642;-50
2021/09/01 01:55:11;;;;;;;8.40;2.60;;;17.10;1.00;;;;;;5000190;28;20308;-51
2021/09/01 01:57:38;;;;;;;5.87;2.33;;;17.30;1.00;;;;;;4997525;28;20284;-50
2021/09/01 02:00:06;;;;;;;7.33;2.70;;;17.30;1.00;;;;;;4999998;28;20712;-51
2021/09/01 02:02:33;;;;;;;10.40;3.13;;;17.10;1.00;;;;;;4998115;28;20339;-51
2021/09/01 02:05:01;;;;;;;6.40;2.70;;;17.20;1.00;;;;;;4997476;28;20209;-50
2021/09/01 02:07:29;;;;;;;12.57;2.70;;;17.20;1.00;;;;;;5000839;28;20233;-51
2021/09/01 02:09:56;;;;;;;13.23;2.80;;;17.00;1.00;;;;;;4996005;28;20238;-50
2021/09/01 02:12:23;;;;;;;8.57;2.87;;;16.90;1.00;;;;;;5000579;28;20804;-50
2021/09/01 02:14:50;;;;;;;7.17;2.77;;;16.90;8.20;;;;;;4999846;28;20314;-50
2021/09/01 02:17:16;;;;;;;8.83;3.27;;;16.80;44.40;;;;;;4997811;28;20201;-50
2021/09/01 02:19:43;;;;;;;8.17;2.80;;;16.90;51.90;;;;;;4999031;28;20195;-50
2021/09/01 02:22:10;;;;;;;7.93;2.67;;;16.80;35.00;;;;;;4998354;28;20250;-50
2021/09/01 02:24:37;;;;;;;9.03;2.53;;;16.80;22.90;;;;;;4997412;28;20205;-51
2021/09/01 02:27:04;;;;;;;8.07;2.93;;;17.00;8.10;;;;;;4999439;28;20374;-50
2021/09/01 02:29:30;;;;;;;11.80;2.90;;;17.20;1.00;;;;;;4999287;28;20214;-51
2021/09/01 02:31:57;;;;;;;11.43;2.43;;;17.10;1.00;;;;;;4998084;28;20273;-51
2021/09/01 02:34:24;;;;;;;6.57;2.60;;;17.00;1.00;;;;;;4999868;28;20691;-51
2021/09/01 02:36:51;;;;;;;10.87;2.67;;;16.90;1.00;;;;;;4997225;28;20204;-50
2021/09/01 02:39:17;;;;;;;11.40;2.57;;;16.90;1.00;;;;;;5000382;28;20284;-50
2021/09/01 02:41:44;;;;;;;8.53;2.53;;;16.90;1.00;;;;;;5000835;28;20252;-51
2021/09/01 02:44:11;;;;;;;5.17;2.57;;;17.00;1.00;;;;;;4998759;28;20202;-51
2021/09/01 02:46:38;;;;;;;8.60;2.27;;;17.10;1.00;;;;;;5012649;28;20472;-50
2021/09/01 02:49:05;;;;;;;9.17;2.40;;;17.10;1.00;;;;;;4995916;28;20289;-51
2021/09/01 02:51:32;;;;;;;5.93;2.50;;;17.10;1.00;;;;;;4996084;28;20280;-50
2021/09/01 02:53:59;;;;;;;6.93;2.77;;;17.20;1.00;;;;;;5000324;28;20560;-50
2021/09/01 02:56:25;;;;;;;5.97;3.60;;;17.10;1.00;;;;;;4996648;28;20203;-51
2021/09/01 02:58:52;;;;;;;7.27;2.67;;;17.00;1.00;;;;;;5000825;28;20205;-50
2021/09/01 03:01:19;;;;;;;6.50;2.90;;;17.00;1.00;;;;;;4999539;28;20394;-51
2021/09/01 03:03:46;;;;;;;11.20;3.03;;;17.10;1.00;;;;;;5001681;28;20205;-51
2021/09/01 03:06:13;;;;;;;7.10;2.97;;;17.20;1.00;;;;;;5000132;28;20357;-51
2021/09/01 03:08:40;;;;;;;8.43;2.60;;;17.30;1.00;;;;;;5000493;28;20242;-50
2021/09/01 03:11:07;;;;;;;9.63;2.43;;;17.30;1.00;;;;;;4997010;28;20237;-51
2021/09/01 03:13:35;;;;;;;9.43;2.80;;;17.20;1.00;;;;;;4995566;28;20265;-50
2021/09/01 03:16:02;;;;;;;9.20;2.83;;;17.20;1.00;;;;;;4998306;28;20580;-50
2021/09/01 03:18:28;;;;;;;9.27;3.00;;;17.20;1.00;;;;;;4998862;28;20595;-50
2021/09/01 03:20:55;;;;;;;6.83;2.57;;;17.10;1.00;;;;;;4999058;28;20299;-50
2021/09/01 03:23:22;;;;;;;7.50;2.40;;;17.20;1.00;;;;;;4999527;28;20304;-51
2021/09/01 03:25:49;;;;;;;7.60;2.43;;;17.30;1.00;;;;;;4996731;28;20347;-51
2021/09/01 03:28:15;;;;;;;7.60;2.43;;;17.30;1.00;;;;;;5002784;28;20200;-51
2021/09/01 03:30:42;;;;;;;9.13;2.90;;;17.30;1.00;;;;;;5003682;28;20717;-51
2021/09/01 03:33:09;;;;;;;8.17;2.80;;;17.40;1.00;;;;;;4997902;28;20223;-51
2021/09/01 03:35:36;;;;;;;8.13;2.60;;;17.40;1.00;;;;;;4999567;28;20719;-50
2021/09/01 03:38:02;;;;;;;7.77;3.27;;;17.40;1.00;;;;;;4997623;28;20305;-50
2021/09/01 03:40:29;;;;;;;8.27;2.87;;;17.40;1.00;;;;;;5001490;28;20235;-50
2021/09/01 03:42:56;;;;;;;12.33;3.30;;;17.40;1.00;;;;;;4998000;28;20241;-51
2021/09/01 03:45:23;;;;;;;9.43;2.90;;;17.40;1.00;;;;;;4993263;28;20199;-51
2021/09/01 03:47:49;;;;;;;6.07;2.13;;;17.40;1.00;;;;;;5000312;28;20201;-51
2021/09/01 03:50:16;;;;;;;5.97;2.60;;;17.30;1.00;;;;;;4993470;28;20207;-50
2021/09/01 03:52:43;;;;;;;8.73;2.53;;;17.30;1.00;;;;;;4996471;28;20287;-51
2021/09/01 03:55:10;;;;;;;6.60;2.77;;;17.30;1.00;;;;;;4999210;28;20251;-50
2021/09/01 03:57:37;;;;;;;9.37;2.93;;;17.20;1.00;;;;;;5000024;28;20612;-50
2021/09/01 04:00:08;;;;;;;7.13;3.10;;;17.20;1.00;;;;;;4995953;28;20707;-50
2021/09/01 04:02:35;;;;;;;7.63;2.63;;;17.40;1.00;;;;;;4996468;28;20667;-51
2021/09/01 04:05:03;;;;;;;8.40;2.50;;;17.20;1.00;;;;;;4999716;28;20262;-51
2021/09/01 04:07:31;;;;;;;8.87;2.30;;;17.40;1.00;;;;;;4997550;28;20332;-51
2021/09/01 04:09:57;;;;;;;7.03;2.40;;;17.50;1.00;;;;;;4997330;28;20295;-51
2021/09/01 04:12:24;;;;;;;6.27;2.37;;;17.50;1.00;;;;;;4998519;28;20270;-51
2021/09/01 04:14:51;;;;;;;7.50;2.50;;;17.50;1.00;;;;;;4997758;28;20243;-51
2021/09/01 04:17:18;;;;;;;7.27;2.77;;;17.50;1.00;;;;;;4995256;28;20292;-50
2021/09/01 04:19:44;;;;;;;10.33;3.70;;;17.40;1.00;;;;;;4999129;28;20289;-51
2021/09/01 04:22:11;;;;;;;8.73;2.80;;;17.30;1.00;;;;;;4995620;28;20233;-49
2021/09/01 04:24:38;;;;;;;8.33;2.70;;;17.30;1.00;;;;;;4999295;28;20312;-50
2021/09/01 04:27:05;;;;;;;7.63;2.67;;;17.40;1.00;;;;;;4998325;28;20304;-50
2021/09/01 04:29:31;;;;;;;12.47;3.27;;;17.40;1.00;;;;;;4999257;28;20293;-50
2021/09/01 04:31:58;;;;;;;9.10;3.53;;;17.40;1.00;;;;;;4997230;28;21009;-50
2021/09/01 04:34:25;;;;;;;6.37;2.50;;;17.50;1.00;;;;;;4996231;28;20216;-51
2021/09/01 04:36:52;;;;;;;8.80;3.00;;;17.50;1.00;;;;;;4998970;28;20291;-51
2021/09/01 04:39:18;;;;;;;5.33;2.80;;;17.50;1.00;;;;;;4996246;28;20735;-51
2021/09/01 04:41:49;;;;;;;8.37;2.90;;;17.50;1.00;;;;;;4998325;28;20214;-51
2021/09/01 04:44:16;;;;;;;5.30;2.80;;;17.50;1.00;;;;;;4998386;28;20604;-51
2021/09/01 04:46:43;;;;;;;7.63;2.43;;;17.50;1.00;;;;;;4996762;28;20243;-51
2021/09/01 04:49:10;;;;;;;8.43;2.93;;;17.40;1.00;;;;;;4993567;28;20236;-51
2021/09/01 04:51:36;;;;;;;9.07;2.90;;;17.40;1.00;;;;;;4996764;28;20279;-51
2021/09/01 04:54:03;;;;;;;6.00;2.60;;;17.40;1.00;;;;;;4992757;28;20215;-50
2021/09/01 04:56:30;;;;;;;7.53;2.60;;;17.40;1.00;;;;;;4996215;28;20309;-51
2021/09/01 04:58:56;;;;;;;9.77;2.77;;;17.40;1.00;;;;;;4995002;28;20195;-51
2021/09/01 05:01:23;;;;;;;13.53;3.00;;;17.30;1.00;;;;;;5002453;28;20235;-50
2021/09/01 05:03:51;;;;;;;6.90;3.33;;;17.20;1.00;;;;;;4996793;28;20249;-51
2021/09/01 05:06:17;;;;;;;9.60;3.30;;;17.10;1.00;;;;;;5000647;28;20988;-51
2021/09/01 05:08:44;;;;;;;10.30;3.17;;;17.20;1.00;;;;;;4996042;28;20494;-51
2021/09/01 05:11:11;;;;;;;9.77;3.63;;;17.30;1.00;;;;;;4999019;28;20237;-51
2021/09/01 05:13:38;;;;;;;8.97;3.60;;;17.30;1.00;;;;;;4998979;28;20238;-50
2021/09/01 05:16:05;;;;;;;9.60;3.00;;;17.30;1.00;;;;;;4999496;28;20263;-51
2021/09/01 05:18:32;;;;;;;6.03;2.60;;;17.30;1.00;;;;;;4997534;28;20209;-51
2021/09/01 05:21:00;;;;;;;7.60;3.00;;;17.40;1.00;;;;;;4995844;28;20631;-50
2021/09/01 05:23:35;;;;;;;7.20;2.57;;;17.40;1.00;;;;;;4997556;28;20291;-51
2021/09/01 05:26:05;;;;;;;11.70;3.43;;;17.40;1.00;;;;;;4995615;28;20239;-51
2021/09/01 05:28:35;;;;;;;8.87;3.20;;;17.40;1.00;;;;;;4997174;28;20297;-51
2021/09/01 05:31:04;;;;;;;7.77;3.10;;;17.40;1.00;;;;;;4995976;28;20216;-51
2021/09/01 05:33:36;;;;;;;7.17;2.73;;;17.40;1.00;;;;;;4996474;28;20594;-51
2021/09/01 05:36:05;;;;;;;9.60;3.13;;;17.40;1.00;;;;;;4996460;28;20214;-50
2021/09/01 05:38:33;;;;;;;9.37;2.97;;;17.40;1.00;;;;;;4996567;28;20294;-50
2021/09/01 05:41:01;;;;;;;8.83;2.90;;;17.40;1.00;;;;;;4992845;28;20208;-50
2021/09/01 05:43:28;;;;;;;10.37;3.17;;;17.40;1.00;;;;;;4997677;28;20507;-50
2021/09/01 05:45:55;;;;;;;6.53;3.00;;;17.20;1.00;;;;;;4996615;28;20261;-50
2021/09/01 05:48:23;;;;;;;7.37;3.53;;;17.00;1.00;;;;;;4995337;28;20244;-50
2021/09/01 05:50:53;;;;;;;10.63;3.73;;;17.00;1.00;;;;;;4996695;28;20624;-50
2021/09/01 05:53:21;;;;;;;9.20;3.03;;;17.20;1.00;;;;;;4997496;28;20236;-51
2021/09/01 05:55:53;;;;;;;9.03;3.13;;;17.20;1.00;;;;;;4994413;28;20307;-50
2021/09/01 05:58:20;;;;;;;11.73;3.60;;;17.30;1.00;;;;;;4997770;28;20573;-50
2021/09/01 06:00:55;;;;;;;10.23;3.23;;;17.30;1.00;;;;;;4991385;28;20222;-51
2021/09/01 06:03:32;;;;;;;11.03;3.53;;;17.30;1.00;;;;;;4996254;28;20199;-50
2021/09/01 06:06:01;;;;;;;6.73;3.40;;;17.30;1.00;;;;;;4994879;28;20206;-50
2021/09/01 06:08:32;;;;;;;10.33;3.50;;;17.30;1.00;;;;;;4996619;28;20350;-51
2021/09/01 06:11:02;;;;;;;6.93;3.27;;;17.30;1.00;;;;;;4993846;28;20264;-51
2021/09/01 06:13:29;;;;;;;7.40;3.40;;;17.30;1.00;;;;;;4997599;28;20303;-51
2021/09/01 06:16:00;;;;;;;10.20;3.10;;;17.40;1.00;;;;;;4995196;28;20323;-50
2021/09/01 06:18:27;;;;;;;10.80;3.90;;;17.40;1.00;;;;;;4993669;28;20657;-51
2021/09/01 06:20:54;;;;;;;9.23;3.20;;;17.40;1.00;;;;;;4995603;28;20315;-51
2021/09/01 06:23:21;;;;;;;11.47;3.10;;;17.40;1.00;;;;;;4993260;28;20285;-51
2021/09/01 06:25:49;;;;;;;11.93;3.13;;;17.40;1.00;;;;;;4998032;28;20288;-51
2021/09/01 06:28:15;;;;;;;10.73;3.30;;;17.40;1.00;;;;;;4995646;28;20204;-51
2021/09/01 06:30:42;;;;;;;12.77;3.30;;;17.40;1.00;;;;;;4997693;28;20207;-51
2021/09/01 06:33:09;;;;;;;10.93;3.13;;;17.50;1.00;;;;;;4996875;28;20775;-51
2021/09/01 06:35:36;;;;;;;6.27;3.60;;;17.50;1.00;;;;;;5001623;28;20645;-51
2021/09/01 06:38:06;;;;;;;7.23;3.40;;;17.40;1.00;;;;;;4999000;28;20193;-50
2021/09/01 06:40:33;;;;;;;11.87;3.90;;;17.40;1.00;;;;;;4999793;28;20249;-51
2021/09/01 06:42:59;;;;;;;10.10;4.03;;;17.40;1.00;;;;;;5002066;28;20579;-51
2021/09/01 06:45:26;;;;;;;7.27;3.73;;;17.40;1.00;;;;;;4995396;28;20293;-51
2021/09/01 06:47:53;;;;;;;9.80;3.73;;;17.40;1.00;;;;;;4996107;28;20244;-51
2021/09/01 06:50:25;;;;;;;7.00;3.40;;;17.40;1.00;;;;;;4995714;28;20303;-50
2021/09/01 06:52:53;;;;;;;8.73;3.03;;;17.40;1.00;;;;;;4998343;28;20760;-51
2021/09/01 06:55:20;;;;;;;6.80;3.17;;;17.30;1.00;;;;;;4997569;28;20653;-50
2021/09/01 06:57:47;;;;;;;9.47;3.60;;;17.40;1.00;;;;;;4998609;28;20238;-51
2021/09/01 07:00:16;;;;;;;10.20;3.50;;;17.40;1.00;;;;;;4995988;28;20292;-50
2021/09/01 07:02:44;;;;;;;12.90;3.77;;;17.40;1.00;;;;;;4996008;28;20204;-50
2021/09/01 07:05:12;;;;;;;7.10;3.43;;;17.30;1.00;;;;;;4997052;28;20605;-51
2021/09/01 07:07:41;;;;;;;9.70;3.43;;;17.30;1.00;;;;;;4986121;28;20245;-50
2021/09/01 07:10:08;;;;;;;11.37;3.90;;;17.30;1.00;;;;;;4992777;28;20405;-51
2021/09/01 07:12:35;;;;;;;9.73;3.20;;;17.40;1.00;;;;;;4993426;28;20746;-51
2021/09/01 07:15:03;;;;;;;7.63;3.53;;;17.40;1.00;;;;;;4995061;28;20779;-51
2021/09/01 07:17:31;;;;;;;7.87;3.50;;;17.50;1.00;;;;;;4989895;28;20590;-50
2021/09/01 07:19:58;;;;;;;9.33;3.40;;;17.40;1.00;;;;;;4995970;28;20239;-51
2021/09/01 07:22:29;;;;;;;14.53;3.53;;;17.50;1.00;;;;;;4993132;28;20199;-50
2021/09/01 07:24:57;;;;;;;11.53;3.73;;;17.50;1.00;;;;;;4993329;28;20745;-50
2021/09/01 07:27:24;;;;;;;8.33;3.30;;;17.50;1.00;;;;;;4994972;28;20216;-51
2021/09/01 07:29:51;;;;;;;8.23;3.47;;;17.40;1.00;;;;;;4994228;28;20308;-50
2021/09/01 07:32:18;;;;;;;8.00;3.60;;;17.20;1.00;;;;;;4996824;28;20648;-51
2021/09/01 07:34:45;;;;;;;12.70;4.17;;;17.10;1.00;;;;;;4991444;28;20363;-50
2021/09/01 07:37:12;;;;;;;9.93;3.53;;;17.40;1.00;;;;;;5000719;28;20224;-50
2021/09/01 07:39:39;;;;;;;10.80;3.63;;;17.40;1.00;;;;;;4993919;28;20244;-50
2021/09/01 07:42:06;;;;;;;9.30;3.73;;;17.40;1.00;;;;;;4989041;28;20413;-50
2021/09/01 07:44:33;;;;;;;8.17;3.30;;;17.40;1.00;;;;;;4997115;28;20698;-50
2021/09/01 07:46:59;;;;;;;10.80;4.13;;;17.40;1.00;;;;;;4993881;28;20282;-50
2021/09/01 07:49:28;;;;;;;9.97;3.63;;;17.60;1.00;;;;;;4996269;28;20624;-51
2021/09/01 07:51:55;;;;;;;9.90;3.50;;;17.60;1.00;;;;;;4994711;28;20212;-50
2021/09/01 07:54:22;;;;;;;12.10;3.73;;;17.60;1.00;;;;;;4991537;28;20207;-50
2021/09/01 07:56:49;;;;;;;9.83;3.83;;;17.70;1.00;;;;;;4988357;28;20382;-50
2021/09/01 07:59:15;;;;;;;9.47;3.60;;;17.70;1.00;;;;;;4991867;28;20236;-50
2021/09/01 08:01:42;;;;;;;8.13;3.27;;;17.70;1.00;;;;;;4993694;28;20363;-51
2021/09/01 08:04:10;;;;;;;7.97;3.40;;;17.80;1.00;;;;;;4990817;28;20689;-51
2021/09/01 08:06:37;;;;;;;8.57;3.27;;;17.80;1.00;;;;;;5000670;28;20351;-50
2021/09/01 08:09:03;;;;;;;8.83;2.83;;;17.80;1.00;;;;;;4992613;28;20668;-50
2021/09/01 08:11:31;;;;;;;9.87;3.57;;;17.80;1.00;;;;;;4992143;28;20237;-51
2021/09/01 08:13:58;;;;;;;10.90;3.00;;;17.90;1.00;;;;;;4994221;28;20288;-50
2021/09/01 08:16:26;;;;;;;6.87;3.57;;;17.90;1.00;;;;;;4994952;28;20327;-51
2021/09/01 08:18:54;;;;;;;8.83;3.10;;;17.90;1.00;;;;;;4991280;28;20345;-50
2021/09/01 08:21:21;;;;;;;7.73;2.70;;;17.90;1.00;;;;;;4994656;28;20248;-49
2021/09/01 08:23:48;;;;;;;8.30;3.43;;;17.80;1.00;;;;;;4994734;28;20264;-52
2021/09/01 08:26:14;;;;;;;9.10;3.53;;;17.90;1.00;;;;;;4991749;28;20229;-50
2021/09/01 08:28:43;;;;;;;11.30;3.30;;;18.00;1.00;;;;;;4994470;28;20212;-56
2021/09/01 08:31:10;;;;;;;5.17;2.33;;;17.90;1.00;;;;;;4999442;28;20306;-50
2021/09/01 08:33:37;;;;;;;8.57;3.40;;;17.80;99.90;;;;;;4993759;28;20598;-50
2021/09/01 08:36:05;;;;;;;6.10;2.20;;;17.60;99.90;;;;;;4997348;28;20254;-50
2021/09/01 08:38:32;;;;;;;8.17;3.60;;;17.70;1.00;;;;;;4995505;28;20235;-50
2021/09/01 08:40:59;;;;;;;8.63;3.30;;;17.90;1.00;;;;;;4996692;28;20228;-49
2021/09/01 08:43:26;;;;;;;8.43;3.23;;;17.70;1.00;;;;;;4991967;28;20263;-50
2021/09/01 08:45:53;;;;;;;11.40;3.70;;;17.80;1.00;;;;;;4997730;28;20279;-51
2021/09/01 08:48:24;;;;;;;13.03;3.63;;;17.50;1.00;;;;;;4994569;28;20198;-50
2021/09/01 08:50:50;;;;;;;9.50;3.60;;;17.50;1.00;;;;;;4999508;28;20300;-50
2021/09/01 08:53:17;;;;;;;8.33;3.23;;;17.40;1.00;;;;;;4998676;28;20208;-50
2021/09/01 08:55:50;;;;;;;10.33;3.00;;;17.40;1.00;;;;;;4991481;28;20211;-50
2021/09/01 08:58:17;;;;;;;6.53;3.50;;;17.50;1.00;;;;;;4997120;28;20531;-50
2021/09/01 09:00:44;;;;;;;8.43;3.50;;;17.70;1.00;;;;;;4995874;28;20547;-50
2021/09/01 09:03:11;;;;;;;8.33;3.50;;;17.60;1.00;;;;;;5007308;28;20201;-49
2021/09/01 09:05:41;;;;;;;10.60;2.97;;;17.60;1.00;;;;;;4993859;28;20687;-50
2021/09/01 09:08:14;;;;;;;9.37;3.53;;;17.70;1.00;;;;;;4993599;28;20239;-50
2021/09/01 09:10:44;;;;;;;8.20;3.23;;;17.40;1.00;;;;;;5001142;28;20627;-50
2021/09/01 09:13:13;;;;;;;6.33;2.80;;;17.30;1.00;;;;;;4999769;28;20231;-50
2021/09/01 09:15:40;;;;;;;6.33;2.63;;;17.40;1.00;;;;;;4997432;28;20226;-50
2021/09/01 09:18:30;;;;;;;10.03;3.63;;;17.50;1.00;;;;;;5002843;28;20235;-50
2021/09/01 09:21:19;;;;;;;9.03;2.27;;;17.60;1.00;;;;;;5004762;28;20200;-50
2021/09/01 09:23:48;;;;;;;4.33;2.23;;;17.90;1.00;;;;;;4999254;28;20278;-50
2021/09/01 09:26:27;;;;;;;5.57;2.10;;;17.90;99.90;;;;;;5002194;28;20242;-50
2021/09/01 09:29:06;;;;;;;3.60;1.67;;;17.90;1.00;;;;;;4997022;28;20230;-50
2021/09/01 09:31:34;;;;;;;3.63;1.70;;;18.00;1.00;;;;;;4992322;28;20239;-49
2021/09/01 09:34:08;;;;;;;3.83;1.83;;;18.00;86.50;;;;;;4997819;28;20211;-50
2021/09/01 09:36:36;;;;;;;4.90;1.80;;;18.10;1.00;;;;;;5002212;28;20236;-50
2021/09/01 09:39:03;;;;;;;3.90;1.57;;;18.30;99.90;;;;;;4996536;28;20201;-49
2021/09/01 09:41:31;;;;;;;4.43;1.63;;;18.40;99.90;;;;;;4996075;28;20300;-50
2021/09/01 09:44:00;;;;;;;4.20;1.60;;;18.50;1.00;;;;;;4998496;28;20243;-50
2021/09/01 09:46:27;;;;;;;5.50;1.83;;;18.50;99.90;;;;;;5001550;28;20741;-49
2021/09/01 09:49:05;;;;;;;5.33;2.27;;;18.40;1.00;;;;;;4994605;28;20208;-50
2021/09/01 09:51:42;;;;;;;4.70;2.10;;;18.40;99.90;;;;;;5001222;28;20298;-50
2021/09/01 09:54:15;;;;;;;6.57;2.10;;;18.30;1.00;;;;;;4994990;28;20701;-50
2021/09/01 09:56:42;;;;;;;6.43;2.00;;;18.40;1.00;;;;;;4996301;28;20299;-50
2021/09/01 09:59:16;;;;;;;3.07;1.70;;;18.50;1.00;;;;;;4995624;28;20244;-50
2021/09/01 10:01:44;;;;;;;4.73;1.83;;;18.30;1.00;;;;;;4996709;28;20298;-50
2021/09/01 10:04:11;;;;;;;5.93;1.50;;;18.50;99.90;;;;;;4999631;28;20207;-50
2021/09/01 10:06:41;;;;;;;5.33;1.63;;;18.50;1.00;;;;;;4984814;28;20319;-50
2021/09/01 10:09:08;;;;;;;7.77;1.63;;;18.50;1.00;;;;;;5017294;28;20295;-50
2021/09/01 10:11:38;;;;;;;4.27;1.53;;;18.40;1.00;;;;;;5000270;28;20241;-50
2021/09/01 10:14:07;;;;;;;5.03;1.80;;;18.40;1.00;;;;;;5002916;28;20813;-50
2021/09/01 10:16:40;;;;;;;3.10;1.50;;;18.60;1.00;;;;;;4998944;28;20291;-50
2021/09/01 10:19:28;;;;;;;4.43;1.90;;;18.60;1.00;;;;;;4996316;28;20608;-50
2021/09/01 10:22:00;;;;;;;4.10;1.60;;;18.60;1.00;;;;;;5002606;28;20279;-50
2021/09/01 10:24:31;;;;;;;3.37;1.50;;;18.80;1.00;;;;;;4997072;28;20196;-50
2021/09/01 10:27:19;;;;;;;4.43;1.90;;;18.80;1.00;;;;;;4994564;28;20370;-49
2021/09/01 10:29:57;;;;;;;5.97;1.60;;;18.50;1.00;;;;;;5020118;28;20250;-50
2021/09/01 10:32:30;;;;;;;5.53;1.80;;;18.60;1.00;;;;;;4995598;28;20221;-50
2021/09/01 10:35:19;;;;;;;3.07;1.30;;;18.70;1.00;;;;;;4997889;28;20240;-50
2021/09/01 10:37:56;;;;;;;4.60;1.80;;;18.60;1.00;;;;;;4998385;28;20893;-50
2021/09/01 10:40:25;;;;;;;3.07;1.50;;;18.30;1.00;;;;;;4991800;28;20606;-50
2021/09/01 10:42:53;;;;;;;4.63;1.73;;;18.40;1.00;;;;;;5000418;28;20509;-50
2021/09/01 10:45:22;;;;;;;6.30;2.07;;;18.40;1.00;;;;;;5004828;28;20296;-50
2021/09/01 10:47:52;;;;;;;2.27;1.30;;;18.40;99.90;;;;;;4997255;28;20233;-50
2021/09/01 10:50:28;;;;;;;4.17;2.00;;;18.50;1.00;;;;;;5003420;28;20205;-50
2021/09/01 10:53:03;;;;;;;3.90;1.77;;;18.40;1.00;;;;;;4993541;28;20293;-50
2021/09/01 10:55:31;;;;;;;5.13;1.67;;;18.20;1.00;;;;;;4994333;28;20767;-50
2021/09/01 10:58:21;;;;;;;3.77;1.77;;;18.10;1.00;;;;;;4995628;28;20319;-50
2021/09/01 11:01:19;;;;;;;3.73;1.50;;;18.30;1.00;;;;;;5000744;28;20227;-50
2021/09/01 11:04:04;;;;;;;6.00;1.50;;;18.40;99.90;;;;;;4998725;28;20211;-50
2021/09/01 11:06:38;;;;;;;5.07;1.80;;;18.30;1.00;;;;;;4995886;28;20295;-50
2021/09/01 11:09:10;;;;;;;3.33;1.60;;;18.40;99.90;;;;;;4998191;28;20204;-50
2021/09/01 11:11:52;;;;;;;3.70;1.80;;;18.60;99.90;;;;;;4997883;28;20205;-50
2021/09/01 11:14:43;;;;;;;4.77;1.63;;;18.80;1.00;;;;;;4995655;28;20518;-50
2021/09/01 11:17:12;;;;;;;5.83;1.50;;;18.90;99.90;;;;;;4998471;28;20359;-50
2021/09/01 11:19:45;;;;;;;3.30;1.33;;;18.90;99.90;;;;;;5003490;28;20228;-50
2021/09/01 11:22:16;;;;;;;4.17;2.03;;;18.80;1.00;;;;;;4997545;28;20307;-50
2021/09/01 11:24:43;;;;;;;4.20;1.60;;;18.80;99.90;;;;;;4989374;28;20371;-50
2021/09/01 11:27:13;;;;;;;3.60;1.60;;;19.00;99.90;;;;;;5002632;28;20286;-50
2021/09/01 11:29:41;;;;;;;6.03;1.83;;;19.00;1.00;;;;;;4992067;28;20297;-50
2021/09/01 11:32:08;;;;;;;3.50;1.60;;;18.80;99.90;;;;;;4987445;28;20887;-50
2021/09/01 11:34:35;;;;;;;5.70;1.50;;;18.80;1.00;;;;;;4991932;28;20622;-50
2021/09/01 11:37:02;;;;;;;3.83;1.50;;;18.80;99.90;;;;;;5003185;28;20585;-50
2021/09/01 11:39:30;;;;;;;6.23;2.00;;;18.70;82.20;;;;;;4995585;28;20657;-50
2021/09/01 11:42:00;;;;;;;3.93;2.27;;;18.70;99.90;;;;;;5000186;28;20255;-50
2021/09/01 11:44:27;;;;;;;7.03;2.40;;;18.50;99.90;;;;;;4995627;28;20235;-50
2021/09/01 11:46:55;;;;;;;5.00;2.23;;;18.60;99.90;;;;;;4997464;28;20319;-50
2021/09/01 11:49:22;;;;;;;4.60;1.73;;;18.40;99.90;;;;;;4997552;28;20213;-50
2021/09/01 11:51:49;;;;;;;4.13;1.87;;;18.40;99.90;;;;;;4991189;28;20727;-50
2021/09/01 11:54:18;;;;;;;3.27;1.87;;;18.40;1.00;;;;;;4989895;28;20371;-50
2021/09/01 11:56:49;;;;;;;4.13;1.57;;;18.30;1.00;;;;;;4997821;28;20700;-50
2021/09/01 11:59:17;;;;;;;6.10;1.83;;;18.50;1.00;;;;;;4994484;28;20976;-50
2021/09/01 12:01:46;;;;;;;3.00;1.90;;;18.60;1.00;;;;;;4997642;28;20228;-50
2021/09/01 12:04:17;;;;;;;6.93;2.07;;;18.70;1.00;;;;;;4993906;28;20851;-50
2021/09/01 12:07:04;;;;;;;4.53;1.53;;;18.70;1.00;;;;;;4995100;28;20281;-50
2021/09/01 12:09:35;;;;;;;7.20;2.80;;;18.70;99.90;;;;;;4995226;28;20504;-50
2021/09/01 12:12:04;;;;;;;9.17;2.17;;;18.60;99.90;;;;;;4997417;28;20213;-51
2021/09/01 12:14:32;;;;;;;4.67;2.03;;;18.80;1.00;;;;;;4996588;28;20196;-52
2021/09/01 12:17:23;;;;;;;3.83;1.73;;;18.90;99.90;;;;;;4996813;28;20213;-49
2021/09/01 12:19:58;;;;;;;5.50;1.60;;;19.00;1.00;;;;;;4996683;28;20657;-51
2021/09/01 12:22:34;;;;;;;8.73;1.90;;;19.10;1.00;;;;;;4994098;28;20598;-51
2021/09/01 12:25:11;;;;;;;4.67;1.80;;;19.30;1.00;;;;;;4996426;28;20210;-51
2021/09/01 12:27:40;;;;;;;4.50;2.83;;;19.00;1.00;;;;;;4990879;28;20215;-51
2021/09/01 12:30:10;;;;;;;3.90;1.70;;;19.10;1.00;;;;;;4989609;28;20307;-51
2021/09/01 12:32:37;;;;;;;3.83;2.20;;;19.20;99.90;;;;;;4994522;28;20319;-51
2021/09/01 12:35:07;;;;;;;5.07;2.00;;;19.10;1.00;;;;;;4996555;28;20239;-51
2021/09/01 12:37:37;;;;;;;5.37;1.70;;;19.20;1.00;;;;;;4994193;28;20666;-51
2021/09/01 12:40:09;;;;;;;3.60;1.70;;;19.30;99.90;;;;;;4984457;28;20605;-51
2021/09/01 12:42:44;;;;;;;4.17;1.80;;;19.30;99.90;;;;;;4985205;28;20205;-51
2021/09/01 12:45:23;;;;;;;5.07;1.90;;;19.30;99.90;;;;;;4991477;28;20670;-58
2021/09/01 12:47:55;;;;;;;4.87;2.20;;;19.30;1.00;;;;;;4988423;28;21190;-57
2021/09/01 12:50:37;;;;;;;8.00;1.97;;;19.20;1.00;;;;;;4991314;28;20686;-57
2021/09/01 12:53:06;;;;;;;6.20;2.20;;;19.30;1.00;;;;;;4985081;28;20960;-57
2021/09/01 12:55:38;;;;;;;4.17;2.00;;;19.00;1.00;;;;;;4987486;28;20267;-57
2021/09/01 12:58:05;;;;;;;4.47;1.90;;;19.00;1.00;;;;;;4989678;28;20234;-57
2021/09/01 13:00:32;;;;;;;5.63;2.00;;;19.10;1.00;;;;;;4990086;28;20348;-56
2021/09/01 13:03:03;;;;;;;5.93;2.30;;;19.20;1.00;;;;;;4993532;28;20204;-57